Great — TCYV6 — position and weather

sailwx.info

Track history (hours):
 
Tides and Currents Weather Stations Pressure Air Temp Water Temp Dewpoint Dewpoint Depression Visibility Wind Speed Wind Dir Waves Ship Positions

Great

Last reported at 2015-May-19 12:33 UTC. Time now 2015-May-25 11:26 UTC.
Position N 37°11' E 026°43'.

Length 187 m; draft 7.9 m.

Type: Cargo ship. MMSI: 271042241.

Date/timePositionNaut miles runAvg speedWind from/ knotsBaromVisibWave heightAir tempDewpointWater temp
2015-May-19 12:33N 37°11' E 026°43'1312.6
2015-May-19 11:30N 37°00' E 026°33'1111.8
2015-May-19 10:33N 36°55' E 026°21'1212.3
2015-May-19 09:32N 36°49' E 026°07'1212.0
2015-May-19 08:32N 36°44' E 025°53'9 9.2
2015-May-19 07:32N 36°42' E 025°42'1212.2
2015-May-19 06:33N 36°37' E 025°29'1212.1
2015-May-19 05:32N 36°33' E 025°14'1212.3
2015-May-19 04:32N 36°32' E 024°59'7412.4
2015-May-18 22:32N 36°23' E 023°27'24411.0
2015-May-18 00:16N 39°02' E 019°33'3512.3
2015-May-17 21:25N 39°33' E 019°10'1112.4
2015-May-17 20:33N 39°42' E 019°04'1312.5
2015-May-17 19:33N 39°53' E 018°55'1212.4
2015-May-17 18:33N 40°03' E 018°47'1212.3
2015-May-17 17:33N 40°14' E 018°39'1212.1
2015-May-17 16:32N 40°24' E 018°30'1312.3
2015-May-17 15:31N 40°34' E 018°20'  
2015-May-12 16:23N 40°15' E 018°46'910.9
2015-May-12 15:33N 40°08' E 018°54'1111.2
2015-May-12 14:33N 39°59' E 019°03'1111.3
2015-May-12 13:33N 39°50' E 019°12'1111.2
2015-May-12 12:33N 39°42' E 019°21'1111.3
2015-May-12 11:33N 39°33' E 019°30'1211.7
2015-May-12 10:33N 39°24' E 019°40'312 9.7
2015-May-11 02:13N 36°33' E 025°12'911.6
2015-May-11 01:24N 36°34' E 025°23'1011.8
2015-May-11 00:33N 36°39' E 025°35'1212.0
2015-May-10 23:33N 36°44' E 025°48'1211.6
2015-May-10 22:33N 36°48' E 026°01'1111.1
2015-May-10 21:33N 36°53' E 026°14'  
Track history (hours):
 
Tides and Currents Weather Stations Pressure Air Temp Water Temp Dewpoint Dewpoint Depression Visibility Wind Speed Wind Dir Waves Ship Positions

Great

Last reported at 2015-May-19 12:33 UTC. Time now 2015-May-25 11:26 UTC.
Position N 37°11' E 026°43'.

Length 187 m; draft 7.9 m.

Type: Cargo ship. MMSI: 271042241.

Date/timePositionNaut miles runAvg speedWind from/ knotsBaromVisibWave heightAir tempDewpointWater temp
2015-May-19 12:33N 37°11' E 026°43'1312.6
2015-May-19 11:30N 37°00' E 026°33'1111.8
2015-May-19 10:33N 36°55' E 026°21'1212.3
2015-May-19 09:32N 36°49' E 026°07'1212.0
2015-May-19 08:32N 36°44' E 025°53'9 9.2
2015-May-19 07:32N 36°42' E 025°42'1212.2
2015-May-19 06:33N 36°37' E 025°29'1212.1
2015-May-19 05:32N 36°33' E 025°14'1212.3
2015-May-19 04:32N 36°32' E 024°59'7412.4
2015-May-18 22:32N 36°23' E 023°27'24411.0
2015-May-18 00:16N 39°02' E 019°33'3512.3
2015-May-17 21:25N 39°33' E 019°10'1112.4
2015-May-17 20:33N 39°42' E 019°04'1312.5
2015-May-17 19:33N 39°53' E 018°55'1212.4
2015-May-17 18:33N 40°03' E 018°47'1212.3
2015-May-17 17:33N 40°14' E 018°39'1212.1
2015-May-17 16:32N 40°24' E 018°30'1312.3
2015-May-17 15:31N 40°34' E 018°20'  
2015-May-12 16:23N 40°15' E 018°46'910.9
2015-May-12 15:33N 40°08' E 018°54'1111.2
2015-May-12 14:33N 39°59' E 019°03'1111.3
2015-May-12 13:33N 39°50' E 019°12'1111.2
2015-May-12 12:33N 39°42' E 019°21'1111.3
2015-May-12 11:33N 39°33' E 019°30'1211.7
2015-May-12 10:33N 39°24' E 019°40'312 9.7
2015-May-11 02:13N 36°33' E 025°12'911.6
2015-May-11 01:24N 36°34' E 025°23'1011.8
2015-May-11 00:33N 36°39' E 025°35'1212.0
2015-May-10 23:33N 36°44' E 025°48'1211.6
2015-May-10 22:33N 36°48' E 026°01'1111.1
2015-May-10 21:33N 36°53' E 026°14'  

Dump ship's entire track history